Time;durP1;ratioP1;P1;durP2;ratioP2;P2;SDS_P1;SDS_P2;PMS_P1;PMS_P2;Temp;Humidity;BMP_temperature;BMP_pressure;BME280_temperature;BME280_humidity;BME280_pressure;Samples;Min_cycle;Max_cycle;Signal;HPM_P1;HPM_P2
2021/04/29 00:00:17;;;;;;;11.95;8.38;;;14.10;65.20;;;;;;4140241;28;20037;-68
2021/04/29 00:02:19;;;;;;;13.05;8.23;;;14.10;65.30;;;;;;4128492;28;20357;-68
2021/04/29 00:04:20;;;;;;;14.23;7.97;;;14.10;64.90;;;;;;4131621;28;20033;-67
2021/04/29 00:06:20;;;;;;;12.07;8.27;;;14.10;65.10;;;;;;4128113;28;20042;-68
2021/04/29 00:08:21;;;;;;;13.43;7.88;;;14.10;64.90;;;;;;4150436;28;20033;-68
2021/04/29 00:10:26;;;;;;;12.50;8.27;;;14.10;65.00;;;;;;4128520;28;20038;-67
2021/04/29 00:12:26;;;;;;;12.00;8.15;;;14.10;64.60;;;;;;4127009;28;20112;-68
2021/04/29 00:14:27;;;;;;;12.00;7.88;;;14.10;64.60;;;;;;4132375;28;20029;-67
2021/04/29 00:16:28;;;;;;;13.25;8.50;;;14.00;64.60;;;;;;4129201;28;20038;-68
2021/04/29 00:18:28;;;;;;;12.80;8.30;;;14.00;65.80;;;;;;4126907;28;20038;-68
2021/04/29 00:20:29;;;;;;;16.15;8.30;;;14.00;65.90;;;;;;4134943;28;20041;-67
2021/04/29 00:22:29;;;;;;;13.15;8.45;;;13.90;69.10;;;;;;4126981;28;20114;-67
2021/04/29 00:24:30;;;;;;;11.23;7.75;;;13.90;67.60;;;;;;4132559;28;20057;-68
2021/04/29 00:26:31;;;;;;;13.05;8.70;;;13.90;67.60;;;;;;4128488;28;20050;-68
2021/04/29 00:28:32;;;;;;;12.85;8.60;;;13.80;67.30;;;;;;4126419;28;20419;-68
2021/04/29 00:30:33;;;;;;;12.93;8.63;;;13.80;67.20;;;;;;4131941;28;20030;-68
2021/04/29 00:32:34;;;;;;;12.35;8.48;;;13.80;68.90;;;;;;4134762;28;20034;-68
2021/04/29 00:34:34;;;;;;;10.30;7.90;;;13.80;67.80;;;;;;4128178;28;20038;-68
2021/04/29 00:36:35;;;;;;;12.23;8.13;;;13.80;68.10;;;;;;4149863;28;20076;-68
2021/04/29 00:38:36;;;;;;;10.85;7.78;;;13.80;67.90;;;;;;4126789;28;20034;-68
2021/04/29 00:40:37;;;;;;;12.23;7.95;;;13.80;67.10;;;;;;4132646;28;20026;-68
2021/04/29 00:42:39;;;;;;;10.25;7.47;;;13.80;67.00;;;;;;4132970;28;20126;-68
2021/04/29 00:44:40;;;;;;;13.02;8.30;;;13.80;67.70;;;;;;4143502;28;20030;-68
2021/04/29 00:46:41;;;;;;;11.88;8.02;;;13.80;68.10;;;;;;4132878;28;20048;-68
2021/04/29 00:48:42;;;;;;;12.50;8.32;;;13.80;67.80;;;;;;4124994;28;20038;-68
2021/04/29 00:50:43;;;;;;;13.30;7.93;;;13.80;68.20;;;;;;4134775;28;20022;-68
2021/04/29 00:52:43;;;;;;;10.68;7.22;;;13.80;69.20;;;;;;4126333;28;20117;-68
2021/04/29 00:54:44;;;;;;;10.98;7.90;;;13.80;67.80;;;;;;4125698;28;20034;-68
2021/04/29 00:56:45;;;;;;;9.70;7.07;;;13.70;68.70;;;;;;4121726;28;20114;-68
2021/04/29 00:58:45;;;;;;;19.40;8.50;;;13.80;69.40;;;;;;4123644;28;20114;-68
2021/04/29 01:00:46;;;;;;;13.23;8.45;;;13.80;68.90;;;;;;4130316;28;20027;-67
2021/04/29 01:02:52;;;;;;;11.73;7.97;;;13.80;68.70;;;;;;4132214;28;20045;-68
2021/04/29 01:04:57;;;;;;;13.30;8.35;;;13.80;69.20;;;;;;4129783;28;20423;-68
2021/04/29 01:07:01;;;;;;;11.68;7.78;;;13.70;70.90;;;;;;4127123;28;20081;-67
2021/04/29 01:09:04;;;;;;;11.23;7.13;;;13.70;71.40;;;;;;4125812;28;20022;-68
2021/04/29 01:11:15;;;;;;;10.85;7.93;;;13.70;70.80;;;;;;4139750;28;20086;-68
2021/04/29 01:13:24;;;;;;;12.23;8.10;;;13.60;73.40;;;;;;4120593;28;20031;-68
2021/04/29 01:15:25;;;;;;;11.75;8.02;;;13.60;74.60;;;;;;4156626;28;20045;-68
2021/04/29 01:17:26;;;;;;;11.68;8.13;;;13.60;74.90;;;;;;4133771;28;20059;-68
2021/04/29 01:19:40;;;;;;;11.75;7.93;;;13.60;75.50;;;;;;4123501;28;20125;-68
2021/04/29 01:21:41;;;;;;;15.25;8.13;;;13.50;76.50;;;;;;4129763;28;20054;-68
2021/04/29 01:23:45;;;;;;;12.25;7.70;;;13.50;75.90;;;;;;4125550;28;20038;-68
2021/04/29 01:25:50;;;;;;;11.90;8.07;;;13.50;75.80;;;;;;4158397;28;20073;-68
2021/04/29 01:27:50;;;;;;;13.57;8.38;;;13.50;76.80;;;;;;4125319;28;20463;-68
2021/04/29 01:29:52;;;;;;;11.38;8.40;;;13.50;76.70;;;;;;4123590;28;20124;-68
2021/04/29 01:31:54;;;;;;;10.73;7.50;;;13.50;77.60;;;;;;4128945;28;20030;-68
2021/04/29 01:33:58;;;;;;;12.40;8.00;;;13.50;78.40;;;;;;4127467;28;20125;-68
2021/04/29 01:35:59;;;;;;;9.52;7.40;;;13.50;80.70;;;;;;4129586;28;20037;-68
2021/04/29 01:38:00;;;;;;;11.88;7.53;;;13.50;80.90;;;;;;4127636;28;20046;-68
2021/04/29 01:40:02;;;;;;;10.63;7.47;;;13.50;83.10;;;;;;4128008;28;20057;-68
2021/04/29 01:42:04;;;;;;;13.38;7.88;;;13.50;83.50;;;;;;4152228;28;20405;-68
2021/04/29 01:44:09;;;;;;;12.73;8.43;;;13.50;83.60;;;;;;4126328;28;20058;-68
2021/04/29 01:46:10;;;;;;;11.45;7.50;;;13.50;83.50;;;;;;4133011;28;20717;-67
2021/04/29 01:48:11;;;;;;;13.10;8.35;;;13.50;85.10;;;;;;4129362;28;20034;-68
2021/04/29 01:50:12;;;;;;;13.35;8.20;;;13.50;85.50;;;;;;4144733;28;20508;-68
2021/04/29 01:52:13;;;;;;;11.35;7.40;;;13.40;86.70;;;;;;4130983;28;20476;-68
2021/04/29 01:54:16;;;;;;;12.07;7.85;;;13.40;86.00;;;;;;4123662;28;20033;-68
2021/04/29 01:56:18;;;;;;;13.85;8.50;;;13.40;85.70;;;;;;4128996;28;20087;-68
2021/04/29 01:58:20;;;;;;;13.38;9.13;;;13.40;86.30;;;;;;4127442;28;20133;-68
2021/04/29 02:00:21;;;;;;;11.43;7.72;;;13.40;87.00;;;;;;4129745;28;20038;-68
2021/04/29 02:02:26;;;;;;;14.85;8.13;;;13.30;88.40;;;;;;4135135;28;20486;-68
2021/04/29 02:04:26;;;;;;;14.60;7.85;;;13.40;87.40;;;;;;4135560;28;20033;-68
2021/04/29 02:06:27;;;;;;;13.07;8.27;;;13.30;88.50;;;;;;4136966;28;20490;-68
2021/04/29 02:08:27;;;;;;;13.65;8.23;;;13.30;89.80;;;;;;4128933;28;20035;-68
2021/04/29 02:10:28;;;;;;;13.55;9.70;;;13.30;89.10;;;;;;4128961;28;20114;-68
2021/04/29 02:12:33;;;;;;;13.50;9.27;;;13.30;89.20;;;;;;4137798;28;20383;-68
2021/04/29 02:14:40;;;;;;;16.30;10.25;;;13.20;89.30;;;;;;4129102;28;20050;-68
2021/04/29 02:16:44;;;;;;;12.15;8.68;;;13.20;89.60;;;;;;4136595;28;20045;-68
2021/04/29 02:18:47;;;;;;;13.63;9.05;;;13.10;90.50;;;;;;4136901;28;20446;-68
2021/04/29 02:20:50;;;;;;;13.05;8.43;;;13.10;90.50;;;;;;4143548;28;20041;-68
2021/04/29 02:22:52;;;;;;;16.73;10.20;;;13.20;91.10;;;;;;4135308;28;20065;-68
2021/04/29 02:24:55;;;;;;;21.95;10.20;;;13.20;91.50;;;;;;4128858;28;20118;-68
2021/04/29 02:26:56;;;;;;;14.18;8.63;;;13.20;91.50;;;;;;4135411;28;20041;-68
2021/04/29 02:28:57;;;;;;;13.73;8.98;;;13.20;91.80;;;;;;4129089;28;20026;-68
2021/04/29 02:31:01;;;;;;;15.73;9.55;;;13.20;91.80;;;;;;4128935;28;20122;-68
2021/04/29 02:33:05;;;;;;;16.23;9.85;;;13.20;92.10;;;;;;4137055;28;20092;-68
2021/04/29 02:35:09;;;;;;;15.63;9.65;;;13.20;92.10;;;;;;4128551;28;20061;-68
2021/04/29 02:37:12;;;;;;;16.42;10.05;;;13.10;93.00;;;;;;4131856;28;20133;-68
2021/04/29 02:39:13;;;;;;;16.20;9.93;;;13.10;93.00;;;;;;4147776;28;20080;-68
2021/04/29 02:41:13;;;;;;;14.20;9.75;;;13.00;94.00;;;;;;4128973;28;20371;-68
2021/04/29 02:43:16;;;;;;;13.88;9.50;;;13.00;94.60;;;;;;4136842;28;20030;-68
2021/04/29 02:45:17;;;;;;;18.48;10.40;;;13.00;94.80;;;;;;4128478;28;20121;-68
2021/04/29 02:47:19;;;;;;;17.35;10.00;;;12.90;96.90;;;;;;4136629;28;20756;-68
2021/04/29 02:49:19;;;;;;;14.15;10.00;;;12.90;97.10;;;;;;4140896;28;20081;-68
2021/04/29 02:51:21;;;;;;;19.27;10.13;;;12.90;97.90;;;;;;4126754;28;20088;-68
2021/04/29 02:53:21;;;;;;;14.20;9.60;;;13.00;98.30;;;;;;4136235;28;20501;-68
2021/04/29 02:55:23;;;;;;;19.50;9.82;;;13.00;99.20;;;;;;4128311;28;20030;-68
2021/04/29 02:57:24;;;;;;;15.77;9.80;;;13.00;99.90;;;;;;4133918;28;20141;-68
2021/04/29 02:59:24;;;;;;;18.50;11.00;;;12.90;99.90;;;;;;4131109;28;20070;-68
2021/04/29 03:01:25;;;;;;;14.10;10.13;;;12.80;99.90;;;;;;4128107;28;20084;-68
2021/04/29 03:03:26;;;;;;;15.60;10.07;;;12.80;99.90;;;;;;4127247;28;20061;-68
2021/04/29 03:05:27;;;;;;;26.80;11.43;;;12.80;99.90;;;;;;4149281;28;20049;-68
2021/04/29 03:07:27;;;;;;;15.00;9.63;;;12.70;99.90;;;;;;4133471;28;20030;-68
2021/04/29 03:09:28;;;;;;;13.60;9.43;;;12.70;99.90;;;;;;4130901;28;20065;-68
2021/04/29 03:11:29;;;;;;;14.63;10.63;;;12.70;99.90;;;;;;4148675;28;20649;-68
2021/04/29 03:13:29;;;;;;;19.65;10.90;;;12.70;99.90;;;;;;4136157;28;20653;-68
2021/04/29 03:15:30;;;;;;;14.95;9.90;;;12.70;99.90;;;;;;4150994;28;20037;-68
2021/04/29 03:17:31;;;;;;;14.65;9.80;;;12.70;99.90;;;;;;4156956;28;20046;-68
2021/04/29 03:19:32;;;;;;;18.85;10.98;;;12.70;99.90;;;;;;4128134;28;20495;-68
2021/04/29 03:21:32;;;;;;;16.90;11.02;;;12.70;99.90;;;;;;4134942;28;20170;-67
2021/04/29 03:23:34;;;;;;;16.40;11.10;;;12.60;99.90;;;;;;4136335;28;20104;-68
2021/04/29 03:25:35;;;;;;;14.23;10.03;;;12.60;99.90;;;;;;4127664;28;20041;-68
2021/04/29 03:27:36;;;;;;;19.98;11.70;;;12.60;99.90;;;;;;4150750;28;20042;-68
2021/04/29 03:29:36;;;;;;;16.33;11.18;;;12.60;99.90;;;;;;4133165;28;20506;-68
2021/04/29 03:31:37;;;;;;;18.73;12.27;;;12.60;99.90;;;;;;4127820;28;20534;-68
2021/04/29 03:33:38;;;;;;;20.52;12.45;;;12.50;99.90;;;;;;4135779;28;20042;-68
2021/04/29 03:35:38;;;;;;;18.50;11.65;;;12.40;99.90;;;;;;4128829;28;20037;-67
2021/04/29 03:37:39;;;;;;;20.05;11.85;;;12.40;99.90;;;;;;4127498;28;20041;-68
2021/04/29 03:39:40;;;;;;;19.20;12.20;;;12.40;99.90;;;;;;4166865;28;20389;-68
2021/04/29 03:41:40;;;;;;;17.30;11.55;;;12.30;99.90;;;;;;4127816;28;20387;-68
2021/04/29 03:43:41;;;;;;;18.52;11.25;;;12.30;99.90;;;;;;4131799;28;20088;-68
2021/04/29 03:45:42;;;;;;;17.40;11.88;;;12.30;99.90;;;;;;4143101;28;20046;-68
2021/04/29 03:47:43;;;;;;;16.80;10.73;;;12.30;99.90;;;;;;4130061;28;20414;-68
2021/04/29 03:49:44;;;;;;;15.07;10.57;;;12.20;99.90;;;;;;4135766;28;20033;-68
2021/04/29 03:51:44;;;;;;;18.48;11.10;;;12.20;99.90;;;;;;4127640;28;20685;-68
2021/04/29 03:53:45;;;;;;;17.90;11.32;;;12.20;99.90;;;;;;4135400;28;20038;-68
2021/04/29 03:55:45;;;;;;;17.27;11.18;;;12.20;99.90;;;;;;4127534;28;20092;-68
2021/04/29 03:57:46;;;;;;;17.20;11.43;;;12.10;99.90;;;;;;4131035;28;20039;-68
2021/04/29 03:59:47;;;;;;;16.80;10.95;;;12.10;99.90;;;;;;4127602;28;20071;-68
2021/04/29 04:01:47;;;;;;;16.08;10.25;;;12.10;99.90;;;;;;4127119;28;20036;-68
2021/04/29 04:03:48;;;;;;;15.27;10.90;;;12.10;99.90;;;;;;4135129;28;20038;-68
2021/04/29 04:05:49;;;;;;;16.45;10.82;;;12.10;99.90;;;;;;4142236;28;20038;-68
2021/04/29 04:07:49;;;;;;;14.93;10.90;;;12.10;99.90;;;;;;4127482;28;20371;-68
2021/04/29 04:09:50;;;;;;;19.50;11.38;;;12.00;99.90;;;;;;4135263;28;20036;-68
2021/04/29 04:11:51;;;;;;;17.20;11.23;;;12.00;99.90;;;;;;4127467;28;20124;-68
2021/04/29 04:13:53;;;;;;;15.57;10.10;;;12.00;99.90;;;;;;4131790;28;20042;-68
2021/04/29 04:15:53;;;;;;;16.60;10.27;;;12.00;99.90;;;;;;4143543;28;20374;-68
2021/04/29 04:17:54;;;;;;;14.23;9.82;;;12.00;99.90;;;;;;4131581;28;20049;-68
2021/04/29 04:19:54;;;;;;;25.75;11.48;;;12.00;99.90;;;;;;4158167;28;20163;-68
2021/04/29 04:21:55;;;;;;;18.90;10.70;;;11.90;99.90;;;;;;4139517;28;20061;-68
2021/04/29 04:23:56;;;;;;;19.27;11.20;;;11.90;99.90;;;;;;4127984;28;20034;-68
2021/04/29 04:25:57;;;;;;;21.52;10.85;;;11.90;99.90;;;;;;4135543;28;20038;-68
2021/04/29 04:27:58;;;;;;;17.25;10.57;;;11.90;99.90;;;;;;4126931;28;20374;-68
2021/04/29 04:29:59;;;;;;;14.30;10.23;;;11.90;99.90;;;;;;4148801;28;20033;-68
2021/04/29 04:31:59;;;;;;;18.00;10.65;;;11.80;99.90;;;;;;4129097;28;20050;-68
2021/04/29 04:34:00;;;;;;;16.90;10.63;;;11.80;99.90;;;;;;4135742;28;20042;-68
2021/04/29 04:36:01;;;;;;;14.07;9.90;;;11.70;99.90;;;;;;4143543;28;20125;-68
2021/04/29 04:38:02;;;;;;;18.30;10.40;;;11.70;99.90;;;;;;4131658;28;20038;-68
2021/04/29 04:40:03;;;;;;;16.02;11.00;;;11.70;99.90;;;;;;4129935;28;20140;-68
2021/04/29 04:42:05;;;;;;;15.83;9.80;;;11.70;99.90;;;;;;4142296;28;20041;-68
2021/04/29 04:44:05;;;;;;;17.50;11.20;;;11.60;99.90;;;;;;4129621;28;20509;-68
2021/04/29 04:46:06;;;;;;;18.33;10.88;;;11.60;99.90;;;;;;4132517;28;20045;-68
2021/04/29 04:48:08;;;;;;;22.92;11.15;;;11.60;99.90;;;;;;4129072;28;20783;-68
2021/04/29 04:50:10;;;;;;;15.30;10.27;;;11.60;99.90;;;;;;4135277;28;20544;-68
2021/04/29 04:52:10;;;;;;;21.73;11.57;;;11.50;99.90;;;;;;4142716;28;20383;-68
2021/04/29 04:54:11;;;;;;;18.27;11.07;;;11.60;99.90;;;;;;4129514;28;20141;-68
2021/04/29 04:56:11;;;;;;;14.15;10.73;;;11.60;99.90;;;;;;4131566;28;20040;-68
2021/04/29 04:58:12;;;;;;;16.30;11.10;;;11.50;99.90;;;;;;4126741;28;20853;-68
2021/04/29 05:00:13;;;;;;;16.60;10.63;;;11.50;99.90;;;;;;4134370;28;20045;-68
2021/04/29 05:02:14;;;;;;;19.42;10.63;;;11.60;99.90;;;;;;4130866;28;20038;-68
2021/04/29 05:04:15;;;;;;;16.63;10.98;;;11.60;99.90;;;;;;4135014;28;20609;-68
2021/04/29 05:06:16;;;;;;;18.42;11.43;;;11.60;99.90;;;;;;4138687;28;20044;-67
2021/04/29 05:08:16;;;;;;;18.02;11.82;;;11.60;99.90;;;;;;4133598;28;20038;-68
2021/04/29 05:10:17;;;;;;;17.05;10.63;;;11.60;99.90;;;;;;4130408;28;20430;-67
2021/04/29 05:12:17;;;;;;;15.40;9.70;;;11.60;99.90;;;;;;4130716;28;20038;-68
2021/04/29 05:14:18;;;;;;;19.80;11.65;;;11.60;99.90;;;;;;4134852;28;20037;-68
2021/04/29 05:16:18;;;;;;;18.40;11.05;;;11.50;99.90;;;;;;4139097;28;20034;-68
2021/04/29 05:18:19;;;;;;;16.70;10.73;;;11.50;99.90;;;;;;4133450;28;20039;-68
2021/04/29 05:20:20;;;;;;;16.42;11.30;;;11.60;99.90;;;;;;4135042;28;20030;-68
2021/04/29 05:22:20;;;;;;;16.65;10.68;;;11.50;99.90;;;;;;4120748;28;20073;-68
2021/04/29 05:24:21;;;;;;;16.80;11.60;;;11.40;99.90;;;;;;4124518;28;20038;-68
2021/04/29 05:26:22;;;;;;;16.13;10.02;;;11.50;99.90;;;;;;4151248;28;20134;-68
2021/04/29 05:28:22;;;;;;;22.70;12.55;;;11.50;99.90;;;;;;4126360;28;20109;-68
2021/04/29 05:30:23;;;;;;;18.58;11.98;;;11.50;99.90;;;;;;4130035;28;20038;-68
2021/04/29 05:32:24;;;;;;;16.60;11.07;;;11.40;99.90;;;;;;4145064;28;20053;-68
2021/04/29 05:34:24;;;;;;;18.45;10.98;;;11.40;99.90;;;;;;4133231;28;20030;-68
2021/04/29 05:36:25;;;;;;;15.10;11.00;;;11.40;99.90;;;;;;4132534;28;20037;-68
2021/04/29 05:38:25;;;;;;;14.98;9.80;;;11.40;99.90;;;;;;4140819;28;20034;-68
2021/04/29 05:40:26;;;;;;;19.33;11.93;;;11.50;99.90;;;;;;4121742;28;20031;-68
2021/04/29 05:42:27;;;;;;;17.15;11.40;;;11.50;99.90;;;;;;4121307;28;20394;-68
2021/04/29 05:44:27;;;;;;;19.15;10.85;;;11.40;99.90;;;;;;4122027;28;20414;-68
2021/04/29 05:46:28;;;;;;;19.95;11.93;;;11.40;99.90;;;;;;4121442;28;20382;-67
2021/04/29 05:48:29;;;;;;;18.40;11.57;;;11.40;99.90;;;;;;4134900;28;20045;-68
2021/04/29 05:50:30;;;;;;;16.08;10.32;;;11.50;99.90;;;;;;4121339;28;20479;-67
2021/04/29 05:52:31;;;;;;;20.00;11.05;;;11.40;99.90;;;;;;4121543;28;20030;-67
2021/04/29 05:54:33;;;;;;;16.52;11.02;;;11.50;99.90;;;;;;4121122;28;20057;-68
2021/04/29 05:56:34;;;;;;;23.88;10.93;;;11.50;99.90;;;;;;4121951;28;20035;-68
2021/04/29 05:58:34;;;;;;;18.45;11.40;;;11.50;99.90;;;;;;4122132;28;20051;-68
2021/04/29 06:00:36;;;;;;;17.73;11.45;;;11.60;99.90;;;;;;4121552;28;20039;-68
2021/04/29 06:02:36;;;;;;;15.27;10.52;;;11.50;99.90;;;;;;4121298;28;20048;-68
2021/04/29 06:04:38;;;;;;;18.00;10.80;;;11.50;99.90;;;;;;4135486;28;20136;-68
2021/04/29 06:06:38;;;;;;;18.83;11.43;;;11.60;99.90;;;;;;4121220;28;20054;-67
2021/04/29 06:08:39;;;;;;;15.52;10.30;;;11.60;99.90;;;;;;4121781;28;20038;-68
2021/04/29 06:10:39;;;;;;;17.80;11.15;;;11.60;99.90;;;;;;4135625;28;20037;-67
2021/04/29 06:12:40;;;;;;;14.43;10.40;;;11.70;99.90;;;;;;4119344;28;20117;-68
2021/04/29 06:14:41;;;;;;;17.77;11.60;;;11.70;99.90;;;;;;4121212;28;20057;-68
2021/04/29 06:16:41;;;;;;;15.68;10.82;;;11.70;99.90;;;;;;4119351;28;20043;-68
2021/04/29 06:18:43;;;;;;;15.30;10.50;;;11.70;99.90;;;;;;4120170;28;20042;-68
2021/04/29 06:20:43;;;;;;;14.70;10.02;;;11.80;99.90;;;;;;4120969;28;20088;-68
2021/04/29 06:22:45;;;;;;;21.30;11.32;;;11.80;99.90;;;;;;4124638;28;20566;-68
2021/04/29 06:24:45;;;;;;;16.52;10.27;;;11.80;99.90;;;;;;4137929;28;20041;-67
2021/04/29 06:26:46;;;;;;;13.98;10.27;;;11.90;99.90;;;;;;4127151;28;20038;-68
2021/04/29 06:28:47;;;;;;;18.35;11.13;;;11.90;99.90;;;;;;4127725;28;20103;-67
2021/04/29 06:30:48;;;;;;;20.90;12.02;;;11.90;99.90;;;;;;4124721;28;20775;-68
2021/04/29 06:32:49;;;;;;;21.08;11.88;;;11.90;99.90;;;;;;4127872;28;20069;-68
2021/04/29 06:34:49;;;;;;;21.17;11.10;;;11.90;99.90;;;;;;4155921;28;20061;-68
2021/04/29 06:36:50;;;;;;;17.00;11.73;;;11.90;99.90;;;;;;4130094;28;20039;-68
2021/04/29 06:38:51;;;;;;;19.73;10.30;;;11.90;99.90;;;;;;4133295;28;20043;-68
2021/04/29 06:40:52;;;;;;;15.65;10.88;;;12.00;99.90;;;;;;4127552;28;20463;-68
2021/04/29 06:42:52;;;;;;;15.60;10.57;;;12.00;99.90;;;;;;4129173;28;20045;-69
2021/04/29 06:44:53;;;;;;;16.88;10.93;;;12.10;99.90;;;;;;4127318;28;20619;-68
2021/04/29 06:46:53;;;;;;;15.45;9.55;;;12.20;99.90;;;;;;4128796;28;20042;-68
2021/04/29 06:48:54;;;;;;;22.58;10.95;;;12.20;99.90;;;;;;4127520;28;20698;-68
2021/04/29 06:50:55;;;;;;;17.77;11.27;;;12.20;99.90;;;;;;4132404;28;20541;-68
2021/04/29 06:52:56;;;;;;;22.25;11.57;;;12.30;99.90;;;;;;4133722;28;20046;-68
2021/04/29 06:54:56;;;;;;;19.65;11.82;;;12.30;99.90;;;;;;4129926;28;20046;-68
2021/04/29 06:56:59;;;;;;;15.20;10.30;;;12.30;99.90;;;;;;4128383;28;20062;-68
2021/04/29 06:58:59;;;;;;;;;;;12.30;99.90;;;;;;4125837;28;20470;-68
2021/04/29 07:01:01;;;;;;;19.23;10.45;;;12.40;99.90;;;;;;4126245;28;19988;-68
2021/04/29 07:03:02;;;;;;;21.15;11.57;;;12.40;99.90;;;;;;4127022;28;20554;-68
2021/04/29 07:05:03;;;;;;;23.73;12.00;;;12.50;99.90;;;;;;4129104;28;20119;-69
2021/04/29 07:07:05;;;;;;;18.75;11.25;;;12.40;99.90;;;;;;4130409;28;20042;-68
2021/04/29 07:09:06;;;;;;;14.85;10.38;;;12.40;99.90;;;;;;4127962;28;20496;-68
2021/04/29 07:11:06;;;;;;;17.38;10.75;;;12.50;99.90;;;;;;4128614;28;20038;-69
2021/04/29 07:13:07;;;;;;;15.32;10.75;;;12.50;99.90;;;;;;4126381;28;20030;-69
2021/04/29 07:15:08;;;;;;;19.27;12.55;;;12.50;99.90;;;;;;4129927;28;20046;-68
2021/04/29 07:17:09;;;;;;;18.50;10.93;;;12.50;99.90;;;;;;4126102;28;20038;-67
2021/04/29 07:19:10;;;;;;;19.95;11.80;;;12.60;99.90;;;;;;4128071;28;20038;-67
2021/04/29 07:21:11;;;;;;;19.70;13.50;;;12.60;99.90;;;;;;4127016;28;20031;-68
2021/04/29 07:23:11;;;;;;;22.65;12.20;;;12.70;99.90;;;;;;4123535;28;20034;-67
2021/04/29 07:25:12;;;;;;;17.30;11.93;;;12.70;99.90;;;;;;4125281;28;20031;-68
2021/04/29 07:27:13;;;;;;;23.48;13.20;;;12.70;99.90;;;;;;4142498;28;20092;-66
2021/04/29 07:29:13;;;;;;;20.10;12.18;;;12.60;99.90;;;;;;4132067;28;20464;-68
2021/04/29 07:31:14;;;;;;;20.65;12.68;;;12.70;99.90;;;;;;4125569;28;20030;-68
2021/04/29 07:33:16;;;;;;;18.08;11.55;;;12.70;99.90;;;;;;4126143;28;20119;-68
2021/04/29 07:35:16;;;;;;;18.58;11.98;;;12.90;99.90;;;;;;4142781;28;20040;-67
2021/04/29 07:37:17;;;;;;;22.67;14.02;;;12.90;99.90;;;;;;4128142;28;20113;-68
2021/04/29 07:39:18;;;;;;;19.33;13.02;;;13.00;99.90;;;;;;4144097;28;20076;-68
2021/04/29 07:41:23;;;;;;;23.90;14.55;;;13.00;99.90;;;;;;4126978;28;20482;-68
2021/04/29 07:43:24;;;;;;;28.33;15.50;;;13.00;99.90;;;;;;4129985;28;20027;-67
2021/04/29 07:45:26;;;;;;;20.55;14.45;;;13.00;99.90;;;;;;4127030;28;20048;-68
2021/04/29 07:47:27;;;;;;;22.13;15.85;;;13.00;99.90;;;;;;4125955;28;20523;-68
2021/04/29 07:49:28;;;;;;;22.23;15.30;;;13.00;99.90;;;;;;4130602;28;20038;-68
2021/04/29 07:51:28;;;;;;;24.38;14.88;;;13.00;99.90;;;;;;4132720;28;20088;-68
2021/04/29 07:53:29;;;;;;;19.23;13.50;;;13.10;99.90;;;;;;4129455;28;20045;-68
2021/04/29 07:55:29;;;;;;;26.13;17.35;;;13.20;99.90;;;;;;4140376;28;20128;-68
2021/04/29 07:57:30;;;;;;;26.40;15.50;;;13.20;99.90;;;;;;4127216;28;20038;-68
2021/04/29 07:59:31;;;;;;;23.30;15.32;;;13.30;99.90;;;;;;4128823;28;20052;-68
2021/04/29 08:01:32;;;;;;;31.65;16.83;;;13.30;99.90;;;;;;4140585;28;20383;-68
2021/04/29 08:03:33;;;;;;;24.50;17.95;;;13.40;99.90;;;;;;4124522;28;20038;-68
2021/04/29 08:05:35;;;;;;;24.05;16.45;;;13.40;99.90;;;;;;4126219;28;20055;-68
2021/04/29 08:07:36;;;;;;;24.63;17.80;;;13.50;99.90;;;;;;4130213;28;20038;-68
2021/04/29 08:09:37;;;;;;;33.10;21.13;;;13.50;99.90;;;;;;4126833;28;20121;-68
2021/04/29 08:11:38;;;;;;;35.78;22.55;;;13.60;99.90;;;;;;4128082;28;20486;-68
2021/04/29 08:13:38;;;;;;;34.67;22.92;;;13.50;99.90;;;;;;4129225;28;20035;-68
2021/04/29 08:15:40;;;;;;;30.33;20.92;;;13.50;99.90;;;;;;4128017;28;20034;-68
2021/04/29 08:17:41;;;;;;;37.50;23.88;;;13.50;99.90;;;;;;4126474;28;20340;-68
2021/04/29 08:19:41;;;;;;;35.25;24.90;;;13.40;99.90;;;;;;4126687;28;20041;-68
2021/04/29 08:21:42;;;;;;;30.27;22.23;;;13.50;99.90;;;;;;4144361;28;20076;-68
2021/04/29 08:23:43;;;;;;;32.30;22.30;;;13.50;99.90;;;;;;4130788;28;20038;-68
2021/04/29 08:25:43;;;;;;;34.28;23.52;;;13.60;99.90;;;;;;4130978;28;20046;-68
2021/04/29 08:27:44;;;;;;;32.85;24.52;;;13.60;99.90;;;;;;4132995;28;20070;-68
2021/04/29 08:29:45;;;;;;;39.97;26.60;;;13.60;99.90;;;;;;4132953;28;20053;-68
2021/04/29 08:31:46;;;;;;;42.70;27.13;;;13.50;99.90;;;;;;4125008;28;20372;-68
2021/04/29 08:33:46;;;;;;;35.60;25.67;;;13.40;99.90;;;;;;4126782;28;20030;-68
2021/04/29 08:35:47;;;;;;;39.63;29.23;;;13.30;99.90;;;;;;4128228;28;20378;-68
2021/04/29 08:37:49;;;;;;;44.78;28.50;;;13.20;99.90;;;;;;4143190;28;20037;-68
2021/04/29 08:39:49;;;;;;;42.17;28.48;;;13.20;99.90;;;;;;4133036;28;20508;-68
2021/04/29 08:41:50;;;;;;;38.08;26.85;;;13.10;99.90;;;;;;4129953;28;20045;-67
2021/04/29 08:43:50;;;;;;;39.47;27.95;;;13.00;99.90;;;;;;4132332;28;20075;-68
2021/04/29 08:45:51;;;;;;;40.20;28.33;;;13.00;99.90;;;;;;4125918;28;20084;-68
2021/04/29 08:47:54;;;;;;;35.30;25.77;;;13.00;99.90;;;;;;4143092;28;20043;-67
2021/04/29 08:49:55;;;;;;;38.60;27.17;;;13.00;99.90;;;;;;4126758;28;20443;-67
2021/04/29 08:51:56;;;;;;;39.92;28.40;;;13.00;99.90;;;;;;4129089;28;20046;-68
2021/04/29 08:53:57;;;;;;;44.28;30.50;;;13.10;99.90;;;;;;4130195;28;20096;-68
2021/04/29 08:55:58;;;;;;;35.65;26.00;;;13.10;99.90;;;;;;4130305;28;20458;-68
2021/04/29 08:57:58;;;;;;;42.63;28.90;;;13.20;99.90;;;;;;4126824;28;20058;-68
2021/04/29 08:59:59;;;;;;;42.95;27.05;;;13.20;99.90;;;;;;4125327;28;20787;-67
2021/04/29 09:02:00;;;;;;;43.03;28.25;;;13.30;99.90;;;;;;4140481;28;20122;-68
2021/04/29 09:04:08;;;;;;;40.90;27.65;;;13.30;99.90;;;;;;4121589;28;20053;-68
2021/04/29 09:06:09;;;;;;;37.75;26.50;;;13.20;99.90;;;;;;4130234;28;20136;-67
2021/04/29 09:08:10;;;;;;;41.33;26.73;;;13.20;99.90;;;;;;4143636;28;20037;-68
2021/04/29 09:10:41;;;;;;;45.17;29.90;;;13.30;99.90;;;;;;4125082;28;20490;-68
2021/04/29 09:12:44;;;;;;;38.63;25.98;;;13.20;99.90;;;;;;4126333;28;20093;-67
2021/04/29 09:14:45;;;;;;;36.47;25.40;;;13.40;99.90;;;;;;4140609;28;20042;-68
2021/04/29 09:16:46;;;;;;;38.45;26.20;;;13.60;99.90;;;;;;4127230;28;20113;-67
2021/04/29 09:18:48;;;;;;;35.67;25.00;;;13.60;99.90;;;;;;4140607;28;20497;-68
2021/04/29 09:20:55;;;;;;;37.87;25.13;;;13.70;99.90;;;;;;4124905;28;20088;-68
2021/04/29 09:23:02;;;;;;;39.28;26.13;;;13.80;99.90;;;;;;4123969;28;20105;-68
2021/04/29 09:25:11;;;;;;;41.13;27.52;;;13.80;99.90;;;;;;4125693;28;20064;-68
2021/04/29 09:27:19;;;;;;;40.97;26.90;;;13.90;99.90;;;;;;4127775;28;20593;-67
2021/04/29 09:29:20;;;;;;;37.72;24.70;;;13.90;99.90;;;;;;4125937;28;20034;-68
2021/04/29 09:31:26;;;;;;;37.72;25.27;;;14.00;99.90;;;;;;4128771;28;20027;-68
2021/04/29 09:33:38;;;;;;;38.88;26.40;;;14.00;99.90;;;;;;4129397;28;20471;-68
2021/04/29 09:35:40;;;;;;;37.28;26.35;;;14.20;99.90;;;;;;4125685;28;20038;-68
2021/04/29 09:37:40;;;;;;;36.83;24.05;;;14.20;99.90;;;;;;4123535;28;20418;-67
2021/04/29 09:39:41;;;;;;;39.60;26.58;;;14.30;99.90;;;;;;4125700;28;20070;-68
2021/04/29 09:41:47;;;;;;;34.60;25.88;;;14.20;99.90;;;;;;4127008;28;20606;-68
2021/04/29 09:44:02;;;;;;;34.33;24.55;;;14.20;99.90;;;;;;4127245;28;20053;-68
2021/04/29 09:46:04;;;;;;;37.47;23.30;;;14.30;99.90;;;;;;4127630;28;20043;-68
2021/04/29 09:48:10;;;;;;;35.85;22.90;;;14.50;99.90;;;;;;4125592;28;20397;-67
2021/04/29 09:50:22;;;;;;;26.10;19.67;;;14.50;98.40;;;;;;4126517;28;20120;-68
2021/04/29 09:52:24;;;;;;;30.05;21.65;;;14.60;98.70;;;;;;4125223;28;20049;-67
2021/04/29 09:54:36;;;;;;;31.13;22.00;;;14.80;98.30;;;;;;4124392;28;20049;-68
2021/04/29 09:56:40;;;;;;;27.85;20.02;;;14.80;96.70;;;;;;4126001;28;20030;-67
2021/04/29 09:58:57;;;;;;;29.33;20.08;;;14.90;95.50;;;;;;4141554;28;20085;-67
2021/04/29 10:00:58;;;;;;;26.63;19.58;;;14.90;94.10;;;;;;4122290;28;20034;-67
2021/04/29 10:02:59;;;;;;;30.00;20.58;;;14.80;95.50;;;;;;4125939;28;20097;-68
2021/04/29 10:05:02;;;;;;;25.67;19.25;;;14.90;96.30;;;;;;4129099;28;20514;-67
2021/04/29 10:07:03;;;;;;;26.60;19.25;;;15.10;96.90;;;;;;4127096;28;20151;-68
2021/04/29 10:09:04;;;;;;;28.88;20.13;;;15.10;95.30;;;;;;4142780;28;20142;-67
2021/04/29 10:11:06;;;;;;;28.20;18.58;;;15.10;94.10;;;;;;4129849;28;20070;-68
2021/04/29 10:13:08;;;;;;;28.83;17.83;;;15.20;94.60;;;;;;4132733;28;20038;-67
2021/04/29 10:15:09;;;;;;;26.53;17.83;;;15.30;96.50;;;;;;4134580;28;20116;-68
2021/04/29 10:17:12;;;;;;;26.63;18.48;;;15.40;94.30;;;;;;4127759;28;20305;-68
2021/04/29 10:19:13;;;;;;;31.50;19.10;;;15.50;93.70;;;;;;4129379;28;20058;-67